createdAt,value
2023-05-05T00:05:11.301Z,63.70
2023-05-05T00:11:57.733Z,63.90
2023-05-05T00:17:26.859Z,64.20
2023-05-05T00:24:29.133Z,64.40
2023-05-05T00:43:18.979Z,64.80
2023-05-05T00:48:46.929Z,65.70
2023-05-05T00:59:43.778Z,66.50
2023-05-05T01:05:14.169Z,67.30
2023-05-05T01:10:59.002Z,67.40
2023-05-05T01:16:33.464Z,67.70
2023-05-05T01:22:04.102Z,67.30
2023-05-05T01:28:33.364Z,68.00
2023-05-05T01:34:07.860Z,68.20
2023-05-05T01:39:37.884Z,68.50
2023-05-05T01:45:09.679Z,68.60
2023-05-05T01:50:38.349Z,68.70
2023-05-05T01:56:08.040Z,68.50
2023-05-05T02:01:49.867Z,68.60
2023-05-05T02:07:26.404Z,68.70
2023-05-05T02:19:13.532Z,69.00
2023-05-05T02:30:21.189Z,69.40
2023-05-05T02:35:54.996Z,69.90
2023-05-05T02:41:36.618Z,69.50
2023-05-05T02:47:49.433Z,69.80
2023-05-05T03:00:24.374Z,70.20
2023-05-05T03:06:23.692Z,70.30
2023-05-05T03:12:07.014Z,70.50
2023-05-05T03:17:54.501Z,70.70
2023-05-05T03:23:31.179Z,67.90
2023-05-05T03:34:32.298Z,70.90
2023-05-05T03:40:03.996Z,71.60
2023-05-05T03:45:33.282Z,71.80
2023-05-05T03:51:01.526Z,72.00
2023-05-05T03:56:32.230Z,72.10
2023-05-05T04:02:00.281Z,71.70
2023-05-05T04:07:28.227Z,73.20
2023-05-05T04:12:57.056Z,72.50
2023-05-05T04:18:25.467Z,72.50
2023-05-05T04:23:53.717Z,72.70
2023-05-05T04:29:22.967Z,72.20
2023-05-05T04:34:51.070Z,72.80
2023-05-05T04:45:55.975Z,72.50
2023-05-05T04:51:28.040Z,73.40
2023-05-05T04:56:56.576Z,73.40
2023-05-05T05:02:29.137Z,72.90
2023-05-05T05:07:57.486Z,72.70
2023-05-05T05:13:26.305Z,72.70
2023-05-05T05:18:54.857Z,72.60
2023-05-05T05:24:25.027Z,72.90
2023-05-05T05:29:54.621Z,72.90
2023-05-05T05:35:22.632Z,72.80
2023-05-05T05:40:50.830Z,73.00
2023-05-05T05:46:19.465Z,73.80
2023-05-05T05:51:48.101Z,73.60
2023-05-05T06:02:44.627Z,73.30
2023-05-05T06:13:49.098Z,72.90
2023-05-05T06:19:18.870Z,73.70
2023-05-05T06:30:17.873Z,73.10
2023-05-05T06:35:45.835Z,73.40
2023-05-05T06:41:13.823Z,74.00
2023-05-05T06:46:43.662Z,73.40
2023-05-05T06:52:11.645Z,73.10
2023-05-05T06:57:39.810Z,73.60
2023-05-05T07:03:09.122Z,72.30
2023-05-05T07:14:10.282Z,71.90
2023-05-05T07:30:40.651Z,70.60
2023-05-05T08:09:13.943Z,69.40
2023-05-05T08:14:43.033Z,72.90
2023-05-05T08:20:11.221Z,68.50
2023-05-05T08:31:11.072Z,67.70
2023-05-05T08:36:43.707Z,67.60
2023-05-05T08:42:29.269Z,67.30
2023-05-05T08:48:19.641Z,67.00
2023-05-05T08:54:03.923Z,67.20
2023-05-05T09:00:10.822Z,67.40
2023-05-05T09:05:44.949Z,66.40
2023-05-05T09:11:41.486Z,66.20
2023-05-05T09:17:27.253Z,67.20
2023-05-05T09:22:55.323Z,66.20
2023-05-05T09:51:29.801Z,64.20
2023-05-05T09:56:58.247Z,64.30
2023-05-05T10:02:36.642Z,65.10
2023-05-05T10:08:16.277Z,64.60
2023-05-05T10:13:45.903Z,64.30
2023-05-05T10:19:58.829Z,63.00
2023-05-05T10:25:31.872Z,62.10
2023-05-05T10:31:12.852Z,62.20
2023-05-05T10:36:49.670Z,62.60
2023-05-05T10:42:27.800Z,61.30
2023-05-05T10:48:01.503Z,61.30
2023-05-05T10:53:44.727Z,61.00
2023-05-05T10:59:38.108Z,60.70
2023-05-05T11:05:26.339Z,60.10
2023-05-05T11:10:57.949Z,64.60
2023-05-05T11:16:48.145Z,59.80
2023-05-05T11:22:16.760Z,59.90
2023-05-05T11:28:16.943Z,60.00
2023-05-05T11:33:46.221Z,60.00
2023-05-05T11:39:55.258Z,59.80
2023-05-05T11:45:25.009Z,59.90
2023-05-05T11:50:54.337Z,59.50
2023-05-05T11:56:23.499Z,60.00
2023-05-05T12:01:51.989Z,59.40
2023-05-05T12:13:33.593Z,60.00
2023-05-05T12:19:11.115Z,59.30
2023-05-05T12:24:40.268Z,59.20
2023-05-05T12:30:44.356Z,59.40
2023-05-05T12:47:46.637Z,58.00
2023-05-05T12:53:25.190Z,59.90
2023-05-05T12:58:55.709Z,60.00
2023-05-05T13:04:28.208Z,59.80
2023-05-05T13:10:10.914Z,59.80
2023-05-05T13:22:16.292Z,59.40
2023-05-05T13:27:44.370Z,59.10
2023-05-05T13:33:12.384Z,59.70
2023-05-05T13:44:22.373Z,58.30
2023-05-05T14:06:20.951Z,57.80
2023-05-05T14:11:54.882Z,58.50
2023-05-05T14:22:50.989Z,57.40
2023-05-05T14:28:44.964Z,57.70
2023-05-05T14:34:12.865Z,57.70
2023-05-05T14:39:53.436Z,57.30
2023-05-05T14:51:23.649Z,54.70
2023-05-05T15:07:52.501Z,56.20
2023-05-05T15:13:20.480Z,56.30
2023-05-05T15:18:49.461Z,56.80
2023-05-05T15:24:24.516Z,56.50
2023-05-05T15:35:27.317Z,56.60
2023-05-05T15:41:00.472Z,56.80
2023-05-05T15:52:08.018Z,56.80
2023-05-05T16:25:19.909Z,57.00
2023-05-05T16:30:47.785Z,57.50
2023-05-05T16:47:11.969Z,69.00
2023-05-05T16:52:39.932Z,75.80
2023-05-05T16:58:08.028Z,73.80
2023-05-05T17:52:57.377Z,58.80
2023-05-05T18:03:53.939Z,74.80
2023-05-05T19:04:41.494Z,62.00
2023-05-05T19:54:13.324Z,71.10
2023-05-05T22:27:39.103Z,93.10
